sensor_id;sensor_type;location;lat;lon;timestamp;pressure;altitude;pressure_sealevel;temperature;humidity
20115;BME280;10218;42.874;25.320;2023-02-18T00:01:28;97827.91;;;2.83;100.00
20115;BME280;10218;42.874;25.320;2023-02-18T00:04:00;97825.81;;;2.63;100.00
20115;BME280;10218;42.874;25.320;2023-02-18T00:06:30;97817.59;;;2.55;100.00
20115;BME280;10218;42.874;25.320;2023-02-18T00:08:58;97821.41;;;2.64;100.00
20115;BME280;10218;42.874;25.320;2023-02-18T00:11:30;97814.41;;;2.75;100.00
20115;BME280;10218;42.874;25.320;2023-02-18T00:14:01;97809.31;;;2.85;100.00
20115;BME280;10218;42.874;25.320;2023-02-18T00:16:29;97806.22;;;3.04;100.00
20115;BME280;10218;42.874;25.320;2023-02-18T00:18:59;97801.47;;;2.96;100.00
20115;BME280;10218;42.874;25.320;2023-02-18T00:21:27;97793.88;;;3.28;100.00
20115;BME280;10218;42.874;25.320;2023-02-18T00:23:55;97805.41;;;3.27;100.00
20115;BME280;10218;42.874;25.320;2023-02-18T00:26:23;97790.47;;;3.15;100.00
20115;BME280;10218;42.874;25.320;2023-02-18T00:28:50;97784.38;;;3.01;100.00
20115;BME280;10218;42.874;25.320;2023-02-18T00:31:38;97790.59;;;3.00;100.00
20115;BME280;10218;42.874;25.320;2023-02-18T00:34:06;97795.16;;;2.98;100.00
20115;BME280;10218;42.874;25.320;2023-02-18T00:36:45;97796.13;;;2.85;100.00
20115;BME280;10218;42.874;25.320;2023-02-18T00:39:37;97795.59;;;2.80;100.00
20115;BME280;10218;42.874;25.320;2023-02-18T00:42:06;97788.66;;;2.79;100.00
20115;BME280;10218;42.874;25.320;2023-02-18T00:44:38;97782.53;;;2.78;100.00
20115;BME280;10218;42.874;25.320;2023-02-18T00:47:06;97774.94;;;2.74;100.00
20115;BME280;10218;42.874;25.320;2023-02-18T00:49:33;97777.22;;;2.91;100.00
20115;BME280;10218;42.874;25.320;2023-02-18T00:52:03;97767.25;;;3.31;100.00
20115;BME280;10218;42.874;25.320;2023-02-18T00:54:32;97772.75;;;3.04;100.00
20115;BME280;10218;42.874;25.320;2023-02-18T00:57:00;97771.94;;;2.91;100.00
20115;BME280;10218;42.874;25.320;2023-02-18T00:59:27;97747.34;;;2.90;100.00
20115;BME280;10218;42.874;25.320;2023-02-18T01:01:54;97752.69;;;3.01;100.00
20115;BME280;10218;42.874;25.320;2023-02-18T01:04:21;97759.97;;;3.34;100.00
20115;BME280;10218;42.874;25.320;2023-02-18T01:06:50;97740.03;;;3.65;100.00
20115;BME280;10218;42.874;25.320;2023-02-18T01:09:20;97761.41;;;4.19;100.00
20115;BME280;10218;42.874;25.320;2023-02-18T01:11:51;97747.13;;;4.44;100.00
20115;BME280;10218;42.874;25.320;2023-02-18T01:14:18;97742.31;;;4.38;100.00
20115;BME280;10218;42.874;25.320;2023-02-18T01:16:46;97749.22;;;3.83;100.00
20115;BME280;10218;42.874;25.320;2023-02-18T01:19:13;97744.59;;;2.55;100.00
20115;BME280;10218;42.874;25.320;2023-02-18T01:21:43;97733.88;;;2.21;100.00
20115;BME280;10218;42.874;25.320;2023-02-18T01:24:11;97743.66;;;2.19;100.00
20115;BME280;10218;42.874;25.320;2023-02-18T01:26:41;97739.16;;;2.21;100.00
20115;BME280;10218;42.874;25.320;2023-02-18T01:29:08;97743.97;;;2.39;100.00
20115;BME280;10218;42.874;25.320;2023-02-18T01:31:39;97724.97;;;2.47;100.00
20115;BME280;10218;42.874;25.320;2023-02-18T01:34:07;97720.38;;;2.38;100.00
20115;BME280;10218;42.874;25.320;2023-02-18T01:36:34;97726.03;;;2.44;100.00
20115;BME280;10218;42.874;25.320;2023-02-18T01:39:04;97726.94;;;2.69;100.00
20115;BME280;10218;42.874;25.320;2023-02-18T01:41:32;97722.44;;;2.45;100.00
20115;BME280;10218;42.874;25.320;2023-02-18T01:44:18;97725.78;;;3.44;100.00
20115;BME280;10218;42.874;25.320;2023-02-18T01:46:47;97732.91;;;3.31;100.00
20115;BME280;10218;42.874;25.320;2023-02-18T01:49:23;97732.41;;;3.02;100.00
20115;BME280;10218;42.874;25.320;2023-02-18T01:52:44;97729.16;;;2.62;100.00
20115;BME280;10218;42.874;25.320;2023-02-18T01:55:18;97733.25;;;2.79;100.00
20115;BME280;10218;42.874;25.320;2023-02-18T01:58:02;97726.34;;;2.89;100.00
20115;BME280;10218;42.874;25.320;2023-02-18T02:00:32;97725.50;;;2.88;100.00
20115;BME280;10218;42.874;25.320;2023-02-18T02:03:02;97743.47;;;2.83;100.00
20115;BME280;10218;42.874;25.320;2023-02-18T02:05:31;97743.53;;;2.58;100.00
20115;BME280;10218;42.874;25.320;2023-02-18T02:08:00;97730.53;;;2.55;100.00
20115;BME280;10218;42.874;25.320;2023-02-18T02:10:43;97736.19;;;3.11;100.00
20115;BME280;10218;42.874;25.320;2023-02-18T02:13:29;97737.97;;;2.86;100.00
20115;BME280;10218;42.874;25.320;2023-02-18T02:16:09;97731.91;;;2.73;100.00
20115;BME280;10218;42.874;25.320;2023-02-18T02:19:15;97728.34;;;2.85;100.00
20115;BME280;10218;42.874;25.320;2023-02-18T02:22:09;97734.63;;;2.84;100.00
20115;BME280;10218;42.874;25.320;2023-02-18T02:36:02;97713.56;;;3.19;100.00
20115;BME280;10218;42.874;25.320;2023-02-18T02:38:55;97697.44;;;3.35;100.00
20115;BME280;10218;42.874;25.320;2023-02-18T02:42:17;97695.88;;;4.12;100.00
20115;BME280;10218;42.874;25.320;2023-02-18T02:45:10;97711.16;;;4.08;100.00
20115;BME280;10218;42.874;25.320;2023-02-18T02:50:27;97714.59;;;3.75;100.00
20115;BME280;10218;42.874;25.320;2023-02-18T02:53:05;97695.62;;;3.93;100.00
20115;BME280;10218;42.874;25.320;2023-02-18T02:55:35;97705.06;;;3.62;100.00
20115;BME280;10218;42.874;25.320;2023-02-18T02:58:02;97698.06;;;4.18;100.00
20115;BME280;10218;42.874;25.320;2023-02-18T03:03:09;97698.50;;;3.78;100.00
20115;BME280;10218;42.874;25.320;2023-02-18T03:11:05;97702.06;;;3.66;100.00
20115;BME280;10218;42.874;25.320;2023-02-18T03:19:38;97716.34;;;2.81;100.00
20115;BME280;10218;42.874;25.320;2023-02-18T03:22:47;97721.03;;;2.65;100.00
20115;BME280;10218;42.874;25.320;2023-02-18T03:25:17;97732.91;;;2.47;100.00
20115;BME280;10218;42.874;25.320;2023-02-18T03:27:55;97743.25;;;2.25;100.00
20115;BME280;10218;42.874;25.320;2023-02-18T03:33:03;97741.12;;;2.30;100.00
20115;BME280;10218;42.874;25.320;2023-02-18T03:35:35;97732.22;;;2.07;100.00
20115;BME280;10218;42.874;25.320;2023-02-18T03:42:10;97731.63;;;2.40;100.00
20115;BME280;10218;42.874;25.320;2023-02-18T03:44:50;97733.84;;;2.58;100.00
20115;BME280;10218;42.874;25.320;2023-02-18T03:47:41;97740.31;;;2.78;100.00
20115;BME280;10218;42.874;25.320;2023-02-18T03:51:07;97738.63;;;3.14;100.00
20115;BME280;10218;42.874;25.320;2023-02-18T03:53:34;97744.16;;;3.22;100.00
20115;BME280;10218;42.874;25.320;2023-02-18T03:56:02;97735.66;;;3.06;100.00
20115;BME280;10218;42.874;25.320;2023-02-18T03:58:29;97735.31;;;2.86;100.00
20115;BME280;10218;42.874;25.320;2023-02-18T04:00:56;97731.00;;;2.85;100.00
20115;BME280;10218;42.874;25.320;2023-02-18T04:03:23;97731.81;;;2.62;100.00
20115;BME280;10218;42.874;25.320;2023-02-18T04:05:51;97725.97;;;2.70;100.00
20115;BME280;10218;42.874;25.320;2023-02-18T04:08:18;97713.56;;;2.59;100.00
20115;BME280;10218;42.874;25.320;2023-02-18T04:10:45;97718.81;;;2.72;100.00
20115;BME280;10218;42.874;25.320;2023-02-18T04:13:12;97726.38;;;2.76;100.00
20115;BME280;10218;42.874;25.320;2023-02-18T04:15:39;97717.66;;;2.99;100.00
20115;BME280;10218;42.874;25.320;2023-02-18T04:18:08;97712.06;;;3.15;100.00
20115;BME280;10218;42.874;25.320;2023-02-18T04:20:35;97694.00;;;4.25;100.00
20115;BME280;10218;42.874;25.320;2023-02-18T04:23:03;97678.44;;;4.65;100.00
20115;BME280;10218;42.874;25.320;2023-02-18T04:25:32;97680.22;;;4.76;100.00
20115;BME280;10218;42.874;25.320;2023-02-18T04:27:59;97680.91;;;4.89;100.00
20115;BME280;10218;42.874;25.320;2023-02-18T04:30:29;97672.75;;;4.81;100.00
20115;BME280;10218;42.874;25.320;2023-02-18T04:32:56;97671.50;;;4.42;100.00
20115;BME280;10218;42.874;25.320;2023-02-18T04:35:26;97656.84;;;4.15;100.00
20115;BME280;10218;42.874;25.320;2023-02-18T04:37:57;97652.63;;;3.79;100.00
20115;BME280;10218;42.874;25.320;2023-02-18T04:40:24;97662.25;;;3.80;100.00
20115;BME280;10218;42.874;25.320;2023-02-18T04:42:57;97661.37;;;3.80;100.00
20115;BME280;10218;42.874;25.320;2023-02-18T04:45:28;97662.88;;;3.49;100.00
20115;BME280;10218;42.874;25.320;2023-02-18T04:47:55;97667.63;;;3.33;100.00
20115;BME280;10218;42.874;25.320;2023-02-18T04:50:27;97664.19;;;3.43;100.00
20115;BME280;10218;42.874;25.320;2023-02-18T04:53:07;97661.84;;;3.28;100.00
20115;BME280;10218;42.874;25.320;2023-02-18T04:55:34;97664.75;;;3.25;100.00
20115;BME280;10218;42.874;25.320;2023-02-18T04:58:03;97673.72;;;3.22;100.00
20115;BME280;10218;42.874;25.320;2023-02-18T05:00:33;97672.16;;;3.20;100.00
20115;BME280;10218;42.874;25.320;2023-02-18T05:03:00;97665.25;;;3.06;100.00
20115;BME280;10218;42.874;25.320;2023-02-18T05:05:31;97665.47;;;3.03;100.00
20115;BME280;10218;42.874;25.320;2023-02-18T05:07:59;97660.81;;;3.07;100.00
20115;BME280;10218;42.874;25.320;2023-02-18T05:10:28;97655.72;;;3.27;100.00
20115;BME280;10218;42.874;25.320;2023-02-18T05:12:56;97655.88;;;3.37;100.00
20115;BME280;10218;42.874;25.320;2023-02-18T05:15:24;97656.81;;;3.01;100.00
20115;BME280;10218;42.874;25.320;2023-02-18T05:17:57;97661.56;;;3.09;100.00
20115;BME280;10218;42.874;25.320;2023-02-18T05:20:26;97660.59;;;3.10;100.00
20115;BME280;10218;42.874;25.320;2023-02-18T05:22:53;97665.25;;;3.06;100.00
20115;BME280;10218;42.874;25.320;2023-02-18T05:25:20;97660.59;;;3.10;100.00
20115;BME280;10218;42.874;25.320;2023-02-18T05:27:48;97668.03;;;3.16;100.00
20115;BME280;10218;42.874;25.320;2023-02-18T05:30:15;97674.00;;;3.07;100.00
20115;BME280;10218;42.874;25.320;2023-02-18T05:32:42;97670.72;;;3.27;100.00
20115;BME280;10218;42.874;25.320;2023-02-18T05:35:09;97664.75;;;3.25;100.00
20115;BME280;10218;42.874;25.320;2023-02-18T05:37:37;97673.81;;;3.21;100.00
20115;BME280;10218;42.874;25.320;2023-02-18T05:40:05;97675.50;;;3.57;100.00
20115;BME280;10218;42.874;25.320;2023-02-18T05:42:34;97656.94;;;3.69;100.00
20115;BME280;10218;42.874;25.320;2023-02-18T05:45:02;97657.75;;;3.59;100.00
20115;BME280;10218;42.874;25.320;2023-02-18T05:47:30;97655.00;;;3.60;100.00
20115;BME280;10218;42.874;25.320;2023-02-18T05:49:57;97656.22;;;3.90;100.00
20115;BME280;10218;42.874;25.320;2023-02-18T05:52:26;97657.69;;;4.16;100.00
20115;BME280;10218;42.874;25.320;2023-02-18T05:54:53;97646.87;;;4.30;100.00
20115;BME280;10218;42.874;25.320;2023-02-18T05:57:24;97649.03;;;4.25;100.00
20115;BME280;10218;42.874;25.320;2023-02-18T05:59:52;97640.94;;;4.49;100.00
20115;BME280;10218;42.874;25.320;2023-02-18T06:02:19;97648.06;;;4.26;100.00
20115;BME280;10218;42.874;25.320;2023-02-18T06:04:46;97629.41;;;4.50;100.00
20115;BME280;10218;42.874;25.320;2023-02-18T06:07:14;97623.53;;;4.46;100.00
20115;BME280;10218;42.874;25.320;2023-02-18T06:09:42;97623.16;;;4.51;100.00
20115;BME280;10218;42.874;25.320;2023-02-18T06:12:10;97619.03;;;5.01;100.00
20115;BME280;10218;42.874;25.320;2023-02-18T06:14:37;97622.66;;;5.21;100.00
20115;BME280;10218;42.874;25.320;2023-02-18T06:17:08;97589.44;;;4.96;100.00
20115;BME280;10218;42.874;25.320;2023-02-18T06:19:37;97620.28;;;5.18;100.00
20115;BME280;10218;42.874;25.320;2023-02-18T06:22:05;97610.28;;;5.63;100.00
20115;BME280;10218;42.874;25.320;2023-02-18T06:24:32;97600.69;;;5.71;100.00
20115;BME280;10218;42.874;25.320;2023-02-18T06:27:00;97594.03;;;5.56;100.00
20115;BME280;10218;42.874;25.320;2023-02-18T06:29:28;97593.78;;;6.10;100.00
20115;BME280;10218;42.874;25.320;2023-02-18T06:31:58;97594.50;;;5.40;100.00
20115;BME280;10218;42.874;25.320;2023-02-18T06:34:26;97598.50;;;5.14;100.00
20115;BME280;10218;42.874;25.320;2023-02-18T06:36:54;97594.88;;;5.15;100.00
20115;BME280;10218;42.874;25.320;2023-02-18T06:39:22;97598.47;;;4.93;100.00
20115;BME280;10218;42.874;25.320;2023-02-18T06:41:50;97586.75;;;5.48;100.00
20115;BME280;10218;42.874;25.320;2023-02-18T06:44:17;97586.81;;;5.37;100.00
20115;BME280;10218;42.874;25.320;2023-02-18T06:46:44;97594.09;;;5.66;100.00
20115;BME280;10218;42.874;25.320;2023-02-18T06:49:13;97594.75;;;5.79;100.00
20115;BME280;10218;42.874;25.320;2023-02-18T06:51:42;97593.94;;;5.37;100.00
20115;BME280;10218;42.874;25.320;2023-02-18T06:54:10;97589.47;;;5.37;100.00
20115;BME280;10218;42.874;25.320;2023-02-18T06:56:38;97598.56;;;5.24;100.00
20115;BME280;10218;42.874;25.320;2023-02-18T06:59:05;97606.31;;;5.15;100.00
20115;BME280;10218;42.874;25.320;2023-02-18T07:01:32;97594.88;;;5.36;100.00
20115;BME280;10218;42.874;25.320;2023-02-18T07:03:59;97589.47;;;5.37;100.00
20115;BME280;10218;42.874;25.320;2023-02-18T07:06:26;97598.03;;;5.71;100.00
20115;BME280;10218;42.874;25.320;2023-02-18T07:08:53;97597.53;;;5.56;100.00
20115;BME280;10218;42.874;25.320;2023-02-18T07:11:21;97610.66;;;5.79;100.00
20115;BME280;10218;42.874;25.320;2023-02-18T07:13:49;97619.25;;;5.92;100.00
20115;BME280;10218;42.874;25.320;2023-02-18T07:16:17;97611.00;;;6.25;100.00
20115;BME280;10218;42.874;25.320;2023-02-18T07:18:45;97609.00;;;6.08;100.00
20115;BME280;10218;42.874;25.320;2023-02-18T07:21:14;97609.81;;;5.99;100.00
20115;BME280;10218;42.874;25.320;2023-02-18T07:23:41;97599.47;;;6.06;100.00
20115;BME280;10218;42.874;25.320;2023-02-18T07:26:12;97600.31;;;6.06;100.00
20115;BME280;10218;42.874;25.320;2023-02-18T07:28:40;97605.78;;;6.44;100.00
20115;BME280;10218;42.874;25.320;2023-02-18T07:31:07;97614.31;;;6.48;100.00
20115;BME280;10218;42.874;25.320;2023-02-18T07:33:35;97617.00;;;6.77;100.00
20115;BME280;10218;42.874;25.320;2023-02-18T07:36:03;97615.63;;;7.11;100.00
20115;BME280;10218;42.874;25.320;2023-02-18T07:38:31;97620.81;;;7.03;100.00
20115;BME280;10218;42.874;25.320;2023-02-18T07:40:59;97609.31;;;7.60;100.00
20115;BME280;10218;42.874;25.320;2023-02-18T07:43:26;97608.63;;;7.58;100.00
20115;BME280;10218;42.874;25.320;2023-02-18T07:45:56;97616.88;;;7.55;100.00
20115;BME280;10218;42.874;25.320;2023-02-18T07:48:24;97612.72;;;7.99;100.00
20115;BME280;10218;42.874;25.320;2023-02-18T07:50:51;97620.22;;;8.13;100.00
20115;BME280;10218;42.874;25.320;2023-02-18T07:53:19;97612.44;;;8.39;99.60
20115;BME280;10218;42.874;25.320;2023-02-18T07:55:46;97609.91;;;8.47;99.16
20115;BME280;10218;42.874;25.320;2023-02-18T07:58:36;97626.34;;;8.33;100.00
20115;BME280;10218;42.874;25.320;2023-02-18T08:01:09;97618.62;;;8.85;98.55
20115;BME280;10218;42.874;25.320;2023-02-18T08:03:39;97617.28;;;8.98;90.81
20115;BME280;10218;42.874;25.320;2023-02-18T08:06:06;97614.13;;;8.85;91.89
20115;BME280;10218;42.874;25.320;2023-02-18T08:08:36;97616.00;;;9.38;88.55
20115;BME280;10218;42.874;25.320;2023-02-18T08:11:04;97618.84;;;9.62;84.48
20115;BME280;10218;42.874;25.320;2023-02-18T08:13:45;97606.59;;;9.52;87.93
20115;BME280;10218;42.874;25.320;2023-02-18T08:16:14;97596.78;;;10.04;83.03
20115;BME280;10218;42.874;25.320;2023-02-18T08:18:43;97604.59;;;10.23;80.06
20115;BME280;10218;42.874;25.320;2023-02-18T08:21:10;97607.34;;;10.39;78.49
20115;BME280;10218;42.874;25.320;2023-02-18T08:23:37;97601.16;;;10.81;71.65
20115;BME280;10218;42.874;25.320;2023-02-18T08:26:04;97610.25;;;10.54;74.81
20115;BME280;10218;42.874;25.320;2023-02-18T08:28:40;97604.72;;;11.05;70.21
20115;BME280;10218;42.874;25.320;2023-02-18T08:31:22;97598.16;;;10.76;73.31
20115;BME280;10218;42.874;25.320;2023-02-18T08:33:50;97588.84;;;11.04;73.43
20115;BME280;10218;42.874;25.320;2023-02-18T08:36:18;97588.09;;;10.78;73.86
20115;BME280;10218;42.874;25.320;2023-02-18T08:38:45;97575.16;;;10.49;77.36
20115;BME280;10218;42.874;25.320;2023-02-18T08:41:13;97589.59;;;10.72;75.87
20115;BME280;10218;42.874;25.320;2023-02-18T08:43:46;97584.44;;;10.79;74.47
20115;BME280;10218;42.874;25.320;2023-02-18T08:46:15;97575.69;;;11.27;71.70
20115;BME280;10218;42.874;25.320;2023-02-18T08:48:45;97582.53;;;11.53;69.12
20115;BME280;10218;42.874;25.320;2023-02-18T08:51:19;97575.69;;;11.75;65.39
20115;BME280;10218;42.874;25.320;2023-02-18T08:53:48;97585.09;;;12.26;63.44
20115;BME280;10218;42.874;25.320;2023-02-18T08:56:15;97574.00;;;13.07;57.78
20115;BME280;10218;42.874;25.320;2023-02-18T08:58:43;97579.66;;;13.20;56.79
20115;BME280;10218;42.874;25.320;2023-02-18T09:01:12;97567.44;;;13.93;53.76
20115;BME280;10218;42.874;25.320;2023-02-18T09:03:39;97571.03;;;14.52;51.18
20115;BME280;10218;42.874;25.320;2023-02-18T09:06:08;97568.84;;;15.34;49.70
20115;BME280;10218;42.874;25.320;2023-02-18T09:08:36;97574.16;;;14.70;50.27
20115;BME280;10218;42.874;25.320;2023-02-18T09:11:05;97570.44;;;14.71;50.84
20115;BME280;10218;42.874;25.320;2023-02-18T09:13:33;97562.91;;;15.38;48.96
20115;BME280;10218;42.874;25.320;2023-02-18T09:16:04;97560.16;;;15.32;49.70
20115;BME280;10218;42.874;25.320;2023-02-18T09:18:33;97554.81;;;15.60;48.67
20115;BME280;10218;42.874;25.320;2023-02-18T09:21:05;97564.50;;;15.33;48.72
20115;BME280;10218;42.874;25.320;2023-02-18T09:23:34;97560.50;;;15.29;47.39
20115;BME280;10218;42.874;25.320;2023-02-18T09:26:06;97548.66;;;15.66;46.91
20115;BME280;10218;42.874;25.320;2023-02-18T09:28:35;97551.88;;;15.55;45.95
20115;BME280;10218;42.874;25.320;2023-02-18T09:31:06;97558.66;;;16.62;44.85
20115;BME280;10218;42.874;25.320;2023-02-18T09:33:39;97565.59;;;16.09;45.65
20115;BME280;10218;42.874;25.320;2023-02-18T09:36:07;97561.09;;;16.91;42.65
20115;BME280;10218;42.874;25.320;2023-02-18T09:38:34;97543.38;;;17.95;42.07
20115;BME280;10218;42.874;25.320;2023-02-18T09:41:06;97552.19;;;19.19;39.46
20115;BME280;10218;42.874;25.320;2023-02-18T09:43:47;97544.22;;;21.03;34.85
20115;BME280;10218;42.874;25.320;2023-02-18T09:46:21;97550.28;;;21.05;36.08
20115;BME280;10218;42.874;25.320;2023-02-18T09:48:50;97557.62;;;20.68;33.16
20115;BME280;10218;42.874;25.320;2023-02-18T09:51:18;97555.06;;;20.55;33.63
20115;BME280;10218;42.874;25.320;2023-02-18T09:53:46;97554.44;;;19.22;35.29
20115;BME280;10218;42.874;25.320;2023-02-18T09:56:40;97549.13;;;18.58;36.46
20115;BME280;10218;42.874;25.320;2023-02-18T09:59:29;97553.28;;;18.48;35.69
20115;BME280;10218;42.874;25.320;2023-02-18T10:01:57;97562.44;;;18.40;36.27
20115;BME280;10218;42.874;25.320;2023-02-18T10:04:42;97553.81;;;20.33;33.82
20115;BME280;10218;42.874;25.320;2023-02-18T10:07:25;97552.31;;;23.09;30.71
20115;BME280;10218;42.874;25.320;2023-02-18T10:10:02;97560.03;;;23.85;29.65
20115;BME280;10218;42.874;25.320;2023-02-18T10:12:38;97557.28;;;21.13;32.41
20115;BME280;10218;42.874;25.320;2023-02-18T10:15:09;97552.34;;;20.73;33.17
20115;BME280;10218;42.874;25.320;2023-02-18T10:17:43;97554.66;;;19.84;33.91
20115;BME280;10218;42.874;25.320;2023-02-18T10:20:16;97560.31;;;21.23;32.07
20115;BME280;10218;42.874;25.320;2023-02-18T10:22:46;97536.16;;;20.67;32.50
20115;BME280;10218;42.874;25.320;2023-02-18T10:25:18;97547.53;;;22.76;29.94
20115;BME280;10218;42.874;25.320;2023-02-18T10:27:47;97546.53;;;21.77;31.36
20115;BME280;10218;42.874;25.320;2023-02-18T10:30:34;97543.31;;;19.93;32.38
20115;BME280;10218;42.874;25.320;2023-02-18T10:36:24;97551.84;;;19.03;34.16
20115;BME280;10218;42.874;25.320;2023-02-18T10:41:28;97530.69;;;17.96;36.60
20115;BME280;10218;42.874;25.320;2023-02-18T10:44:22;97535.81;;;18.37;36.18
20115;BME280;10218;42.874;25.320;2023-02-18T10:50:01;97531.16;;;18.70;35.56
20115;BME280;10218;42.874;25.320;2023-02-18T10:52:34;97527.59;;;17.86;36.16
20115;BME280;10218;42.874;25.320;2023-02-18T10:55:06;97518.38;;;18.33;36.16
20115;BME280;10218;42.874;25.320;2023-02-18T10:57:48;97525.00;;;18.44;36.04
20115;BME280;10218;42.874;25.320;2023-02-18T11:00:22;97512.81;;;18.79;35.39
20115;BME280;10218;42.874;25.320;2023-02-18T11:05:44;97499.09;;;17.90;36.74
20115;BME280;10218;42.874;25.320;2023-02-18T11:08:19;97503.78;;;18.34;36.01
20115;BME280;10218;42.874;25.320;2023-02-18T11:10:50;97499.88;;;18.17;36.48
20115;BME280;10218;42.874;25.320;2023-02-18T11:13:28;97494.72;;;17.89;36.91
20115;BME280;10218;42.874;25.320;2023-02-18T11:16:06;97490.16;;;17.50;37.64
20115;BME280;10218;42.874;25.320;2023-02-18T11:18:39;97498.25;;;17.83;37.30
20115;BME280;10218;42.874;25.320;2023-02-18T11:23:50;97501.56;;;17.32;38.01
20115;BME280;10218;42.874;25.320;2023-02-18T11:26:39;97504.91;;;17.74;37.19
20115;BME280;10218;42.874;25.320;2023-02-18T11:29:20;97491.41;;;17.74;37.66
20115;BME280;10218;42.874;25.320;2023-02-18T11:31:50;97482.44;;;17.53;37.86
20115;BME280;10218;42.874;25.320;2023-02-18T11:34:22;97480.78;;;16.52;38.80
20115;BME280;10218;42.874;25.320;2023-02-18T11:36:50;97481.81;;;17.19;39.23
20115;BME280;10218;42.874;25.320;2023-02-18T11:39:25;97483.06;;;17.09;39.15
20115;BME280;10218;42.874;25.320;2023-02-18T11:42:04;97475.59;;;17.25;38.54
20115;BME280;10218;42.874;25.320;2023-02-18T11:44:35;97481.56;;;16.94;38.98
20115;BME280;10218;42.874;25.320;2023-02-18T11:49:36;97485.56;;;17.11;38.79
20115;BME280;10218;42.874;25.320;2023-02-18T11:52:16;97475.38;;;17.39;38.39
20115;BME280;10218;42.874;25.320;2023-02-18T11:55:10;97472.66;;;17.13;38.64
20115;BME280;10218;42.874;25.320;2023-02-18T11:57:43;97472.03;;;16.98;38.21
20115;BME280;10218;42.874;25.320;2023-02-18T12:00:36;97477.03;;;17.01;38.32
20115;BME280;10218;42.874;25.320;2023-02-18T12:03:17;97478.72;;;17.28;37.98
20115;BME280;10218;42.874;25.320;2023-02-18T12:05:50;97476.66;;;17.57;38.43
20115;BME280;10218;42.874;25.320;2023-02-18T12:08:31;97483.91;;;17.36;38.44
20115;BME280;10218;42.874;25.320;2023-02-18T12:11:04;97474.34;;;17.21;38.43
20115;BME280;10218;42.874;25.320;2023-02-18T12:13:50;97474.78;;;17.31;38.28
20115;BME280;10218;42.874;25.320;2023-02-18T12:22:16;97471.66;;;17.47;38.26
20115;BME280;10218;42.874;25.320;2023-02-18T12:27:55;97461.34;;;19.17;36.11
20115;BME280;10218;42.874;25.320;2023-02-18T12:30:44;97468.56;;;18.98;35.89
20115;BME280;10218;42.874;25.320;2023-02-18T12:50:24;97456.16;;;22.45;31.63
20115;BME280;10218;42.874;25.320;2023-02-18T12:53:19;97445.88;;;21.54;31.06
20115;BME280;10218;42.874;25.320;2023-02-18T12:55:57;97437.59;;;20.78;32.33
20115;BME280;10218;42.874;25.320;2023-02-18T13:03:54;97434.22;;;20.16;33.50
20115;BME280;10218;42.874;25.320;2023-02-18T13:09:09;97432.78;;;21.63;32.08
20115;BME280;10218;42.874;25.320;2023-02-18T13:14:25;97444.53;;;23.18;29.74
20115;BME280;10218;42.874;25.320;2023-02-18T13:16:58;97437.75;;;23.66;29.21
20115;BME280;10218;42.874;25.320;2023-02-18T13:20:02;97435.41;;;23.41;28.79
20115;BME280;10218;42.874;25.320;2023-02-18T13:22:32;97418.75;;;24.91;27.95
20115;BME280;10218;42.874;25.320;2023-02-18T13:24:59;97426.38;;;24.67;28.07
20115;BME280;10218;42.874;25.320;2023-02-18T13:35:42;97417.41;;;22.95;29.31
20115;BME280;10218;42.874;25.320;2023-02-18T13:40:52;97398.75;;;21.84;30.66
20115;BME280;10218;42.874;25.320;2023-02-18T13:43:33;97388.75;;;22.64;29.84
20115;BME280;10218;42.874;25.320;2023-02-18T13:46:15;97394.50;;;23.74;28.46
20115;BME280;10218;42.874;25.320;2023-02-18T13:51:40;97393.34;;;23.87;28.91
20115;BME280;10218;42.874;25.320;2023-02-18T13:54:24;97399.63;;;23.37;29.04
20115;BME280;10218;42.874;25.320;2023-02-18T13:57:02;97380.66;;;24.58;27.81
20115;BME280;10218;42.874;25.320;2023-02-18T14:04:48;97378.81;;;24.42;27.85
20115;BME280;10218;42.874;25.320;2023-02-18T14:10:25;97367.47;;;24.11;28.17
20115;BME280;10218;42.874;25.320;2023-02-18T14:20:51;97382.84;;;22.55;30.26
20115;BME280;10218;42.874;25.320;2023-02-18T14:25:54;97388.22;;;20.03;33.29
20115;BME280;10218;42.874;25.320;2023-02-18T14:28:37;97393.87;;;21.51;31.71
20115;BME280;10218;42.874;25.320;2023-02-18T14:50:18;97417.34;;;18.90;35.13
20115;BME280;10218;42.874;25.320;2023-02-18T14:52:50;97396.94;;;19.69;34.96
20115;BME280;10218;42.874;25.320;2023-02-18T14:55:25;97417.00;;;18.80;35.99
20115;BME280;10218;42.874;25.320;2023-02-18T14:58:00;97406.34;;;17.96;37.62
20115;BME280;10218;42.874;25.320;2023-02-18T15:00:32;97417.84;;;17.65;38.08
20115;BME280;10218;42.874;25.320;2023-02-18T15:03:00;97421.38;;;17.13;38.93
20115;BME280;10218;42.874;25.320;2023-02-18T15:05:30;97420.78;;;17.11;39.13
20115;BME280;10218;42.874;25.320;2023-02-18T15:08:01;97418.44;;;16.75;40.15
20115;BME280;10218;42.874;25.320;2023-02-18T15:10:44;97408.19;;;16.57;41.18
20115;BME280;10218;42.874;25.320;2023-02-18T15:13:27;97409.75;;;16.32;42.31
20115;BME280;10218;42.874;25.320;2023-02-18T15:16:04;97425.28;;;16.84;41.91
20115;BME280;10218;42.874;25.320;2023-02-18T15:18:41;97426.22;;;16.57;42.70
20115;BME280;10218;42.874;25.320;2023-02-18T15:21:34;97422.75;;;16.63;42.49
20115;BME280;10218;42.874;25.320;2023-02-18T15:24:06;97426.59;;;16.34;43.42
20115;BME280;10218;42.874;25.320;2023-02-18T15:26:40;97424.22;;;16.18;43.89
20115;BME280;10218;42.874;25.320;2023-02-18T15:29:15;97421.31;;;16.13;44.35
20115;BME280;10218;42.874;25.320;2023-02-18T15:31:47;97425.59;;;16.01;44.89
20115;BME280;10218;42.874;25.320;2023-02-18T15:34:35;97423.25;;;15.91;45.63
20115;BME280;10218;42.874;25.320;2023-02-18T15:37:11;97416.38;;;16.23;45.13
20115;BME280;10218;42.874;25.320;2023-02-18T15:39:41;97423.34;;;16.04;45.66